Aérodrome :
LOGIN :

S'inscrire | Disclaimer

   EN    FR    IT 

 










Légende :    VFR   VFR Marginal   IFR   IFR Intensif   IFR Très Intensif
Visi : 
Plafond : 
>= 8 km
>= 3000ft
5 à 8 km
1000 à 3000 ft
1500m à 5 km
500 à 1000 ft
800 à 1500m
200 à 500 ft
< 800m
< 200 ft
Symboles :   Orages  Brouillard  Fortes neiges  Fortes précipitations  Vent > 20 kt
SIGMETs :   Divers  Orages  Givrage  Turbulence  Onde Orograph.  Cendres Volcan.







- Altitude de l'aérodrome : 160 ft
- Code IATA : LRT
- Voir les cartes d'approche


LFRH - Lorient Lann Bihoue

DERNIER METAR :
  • 171700Z AUTO 25008KT 9999 BKN006 BKN011 BKN016 20/18 Q1017 TEMPO 2000 RA BR VV///

METARs EXPIRÉS :
  • 171630Z AUTO 25010KT 9999 BKN007 OVC016 20/18 Q1017 TEMPO 2000 RA BR VV///
  • 171600Z AUTO 25010KT 9999 BKN006 OVC011 20/18 Q1017 TEMPO 2000 RA BR VV///
  • 171530Z AUTO 25009KT 9999 BKN009 BKN014 BKN054 20/18 Q1017 TEMPO 2000 RA BR VV///
  • 171500Z AUTO 25010KT 9999 BKN009 BKN013 BKN018 20/17 Q1017 TEMPO 2000 RA BR VV///
  • 171430Z AUTO 24008KT 9999 BKN012 OVC056 21/18 Q1017 TEMPO 2000 RA BR VV///

TAF AMD TAF LFRH
Valide du 17 à 12h jusqu'au 18 à 12h UTC


171226Z 1712/1812 25012KT 9999 BKN005 OVC015
TEMPO 1712/1803 4000 RADZ BR OVC003
PROB40
TEMPO 1715/1803 2000 RA BR VV///
BECMG 1800/1802 29010KT BKN008
BECMG 1806/1808 BKN015
BECMG 1810/1812 26015G25KT SCT015
Pas de NOTAMs connus pour ce terrain.



MET'MAP, la Météo Aéronautique d'un coup d'oeil ! - Copyright ORBIFLY Décembre 2007 - Disclaimer

ORBIFLY MET'MAP TEAM :

Programmation & Développement : Alexandra Zaïnal
Conception & Développement : Baudouin d'Aumeries
Co-Programmation & Développement : Marc-Olivier Méhu
Soutien technique & logistique : Manuel Goepfert

Contact : metmap@orbifly.com




SOURCES & CREDITS :

   NOAA